Time;durP1;ratioP1;P1;durP2;ratioP2;P2;SDS_P1;SDS_P2;PMS_P1;PMS_P2;Temp;Humidity;BMP_temperature;BMP_pressure;BME280_temperature;BME280_humidity;BME280_pressure;Samples;Min_cycle;Max_cycle;Signal;HPM_P1;HPM_P2
2023/12/23 00:00:45;;;;;;;;;;;;;;;;;;5047639;28;5003;-59
2023/12/23 00:03:10;;;;;;;;;;;;;;;;;;5047668;28;5049;-59
2023/12/23 00:05:36;;;;;;;;;;;;;;;;;;5051066;28;5534;-59
2023/12/23 00:08:01;;;;;;;;;;;;;;;;;;5046643;28;5078;-58
2023/12/23 00:10:26;;;;;;;;;;;;;;;;;;5043106;28;5040;-59
2023/12/23 00:12:51;;;;;;;;;;;;;;;;;;5043430;28;3516;-59
2023/12/23 00:15:17;;;;;;;;;;;;;;;;;;5046547;28;4776;-60
2023/12/23 00:17:43;;;;;;;;;;;;;;;;;;5045177;28;5213;-60
2023/12/23 00:20:08;;;;;;;;;;;;;;;;;;5040646;28;4582;-61
2023/12/23 00:22:33;;;;;;;;;;;;;;;;;;5042611;28;5067;-62
2023/12/23 00:24:59;;;;;;;;;;;;;;;;;;5042981;28;3663;-60
2023/12/23 00:27:24;;;;;;;;;;;;;;;;;;5037849;28;4583;-60
2023/12/23 00:29:49;;;;;;;;;;;;;;;;;;5039381;28;4572;-60
2023/12/23 00:32:14;;;;;;;;;;;;;;;;;;5043566;28;6316;-61
2023/12/23 00:34:40;;;;;;;;;;;;;;;;;;5040065;28;5123;-60
2023/12/23 00:37:05;;;;;;;;;;;;;;;;;;5043770;28;3535;-62
2023/12/23 00:39:30;;;;;;;;;;;;;;;;;;5039455;28;5033;-60
2023/12/23 00:41:56;;;;;;;;;;;;;;;;;;5036952;28;4747;-60
2023/12/23 00:44:22;;;;;;;;;;;;;;;;;;5042693;28;4605;-60
2023/12/23 00:46:47;;;;;;;;;;;;;;;;;;5040774;28;5159;-59
2023/12/23 00:49:12;;;;;;;;;;;;;;;;;;5041439;28;3617;-60
2023/12/23 00:51:38;;;;;;;;;;;;;;;;;;5044336;28;4719;-60
2023/12/23 00:54:03;;;;;;;;;;;;;;;;;;5040548;28;4793;-59
2023/12/23 00:56:28;;;;;;;;;;;;;;;;;;5042946;28;5118;-60
2023/12/23 00:58:54;;;;;;;;;;;;;;;;;;5040215;28;4938;-59
2023/12/23 01:01:19;;;;;;;;;;;;;;;;;;5041898;28;3594;-59
2023/12/23 01:03:44;;;;;;;;;;;;;;;;;;5041438;28;4689;-60
2023/12/23 01:06:10;;;;;;;;;;;;;;;;;;5041006;28;5089;-60
2023/12/23 01:08:35;;;;;;;;;;;;;;;;;;5039561;28;4525;-60
2023/12/23 01:11:00;;;;;;;;;;;;;;;;;;5030908;28;5134;-60
2023/12/23 01:13:26;;;;;;;;;;;;;;;;;;5035349;28;4640;-60
2023/12/23 01:15:51;;;;;;;;;;;;;;;;;;5041251;28;3456;-60
2023/12/23 01:18:16;;;;;;;;;;;;;;;;;;5040064;28;4499;-60
2023/12/23 01:20:42;;;;;;;;;;;;;;;;;;5038210;28;4532;-59
2023/12/23 01:23:08;;;;;;;;;;;;;;;;;;5038939;28;5097;-61
2023/12/23 01:25:33;;;;;;;;;;;;;;;;;;5041640;28;4562;-59
2023/12/23 01:28:04;;;;;;;;;;;;;;;;;;5037365;28;3914;-59
2023/12/23 01:30:29;;;;;;;;;;;;;;;;;;5041052;28;5213;-61
2023/12/23 01:32:54;;;;;;;;;;;;;;;;;;5042862;28;4495;-60
2023/12/23 01:35:20;;;;;;;;;;;;;;;;;;5040666;28;5036;-60
2023/12/23 01:37:45;;;;;;;;;;;;;;;;;;5045866;28;5009;-60
2023/12/23 01:40:10;;;;;;;;;;;;;;;;;;5044050;28;3609;-60
2023/12/23 01:42:36;;;;;;;;;;;;;;;;;;5039955;28;4622;-60
2023/12/23 01:45:01;;;;;;;;;;;;;;;;;;5039333;28;4937;-59
2023/12/23 01:47:27;;;;;;;;;;;;;;;;;;5035817;28;4932;-60
2023/12/23 01:49:52;;;;;;;;;;;;;;;;;;5042230;28;5098;-59
2023/12/23 01:52:17;;;;;;;;;;;;;;;;;;5043456;28;1117;-60
2023/12/23 01:54:43;;;;;;;;;;;;;;;;;;5034718;28;4435;-59
2023/12/23 01:57:08;;;;;;;;;;;;;;;;;;5042114;28;4684;-60
2023/12/23 01:59:33;;;;;;;;;;;;;;;;;;5037475;28;4826;-59
2023/12/23 02:01:59;;;;;;;;;;;;;;;;;;5036792;28;4761;-60
2023/12/23 02:04:24;;;;;;;;;;;;;;;;;;5040616;28;4518;-60
2023/12/23 02:06:49;;;;;;;;;;;;;;;;;;5035316;28;3570;-59
2023/12/23 02:09:14;;;;;;;;;;;;;;;;;;5037582;28;5216;-58
2023/12/23 02:11:46;;;;;;;;;;;;;;;;;;5040168;28;5268;-60
2023/12/23 02:14:38;;;;;;;;;;;;;;;;;;5036129;28;5101;-60
2023/12/23 02:17:03;;;;;;;;;;;;;;;;;;5020000;28;5168;-59
2023/12/23 02:19:28;;;;;;;;;;;;;;;;;;5039032;28;5074;-60
2023/12/23 02:21:54;;;;;;;;;;;;;;;;;;5042918;28;3446;-60
2023/12/23 02:24:19;;;;;;;;;;;;;;;;;;5036842;28;4920;-60
2023/12/23 02:26:46;;;;;;;;;;;;;;;;;;5044753;28;5110;-60
2023/12/23 02:29:11;;;;;;;;;;;;;;;;;;5035029;28;4590;-60
2023/12/23 02:31:37;;;;;;;;;;;;;;;;;;5045217;28;5534;-61
2023/12/23 02:34:02;;;;;;;;;;;;;;;;;;5044273;28;5227;-59
2023/12/23 02:36:27;;;;;;;;;;;;;;;;;;5042035;28;5143;-60
2023/12/23 02:38:52;;;;;;;;;;;;;;;;;;5045404;28;5044;-60
2023/12/23 02:41:18;;;;;;;;;;;;;;;;;;5045298;28;5112;-59
2023/12/23 02:43:43;;;;;;;;;;;;;;;;;;5045040;28;5011;-59
2023/12/23 02:46:09;;;;;;;;;;;;;;;;;;5046902;28;1380;-59
2023/12/23 02:48:34;;;;;;;;;;;;;;;;;;5045469;28;4607;-60
2023/12/23 02:50:59;;;;;;;;;;;;;;;;;;5042783;28;5018;-59
2023/12/23 02:53:25;;;;;;;;;;;;;;;;;;5046430;28;5098;-60
2023/12/23 02:55:50;;;;;;;;;;;;;;;;;;5048422;28;5071;-60
2023/12/23 02:58:15;;;;;;;;;;;;;;;;;;5042601;28;1185;-60
2023/12/23 03:00:41;;;;;;;;;;;;;;;;;;5043977;28;5242;-60
2023/12/23 03:03:06;;;;;;;;;;;;;;;;;;5045028;28;4768;-60
2023/12/23 03:05:31;;;;;;;;;;;;;;;;;;5040180;28;5116;-60
2023/12/23 03:07:56;;;;;;;;;;;;;;;;;;5046687;28;5235;-60
2023/12/23 03:10:22;;;;;;;;;;;;;;;;;;5050546;28;1258;-60
2023/12/23 03:12:47;;;;;;;;;;;;;;;;;;5044397;28;4433;-59
2023/12/23 03:15:12;;;;;;;;;;;;;;;;;;5048445;28;4941;-60
2023/12/23 03:17:38;;;;;;;;;;;;;;;;;;5046779;28;4586;-61
2023/12/23 03:20:04;;;;;;;;;;;;;;;;;;5048104;28;5168;-59
2023/12/23 03:22:30;;;;;;;;;;;;;;;;;;5045453;28;5049;-59
2023/12/23 03:24:55;;;;;;;;;;;;;;;;;;5047475;28;3553;-61
2023/12/23 03:27:20;;;;;;;;;;;;;;;;;;5044167;28;4640;-60
2023/12/23 03:29:45;;;;;;;;;;;;;;;;;;5045616;28;5138;-59
2023/12/23 03:32:11;;;;;;;;;;;;;;;;;;5045444;28;5284;-59
2023/12/23 03:34:36;;;;;;;;;;;;;;;;;;5044244;28;5081;-60
2023/12/23 03:37:01;;;;;;;;;;;;;;;;;;5034968;28;3797;-59
2023/12/23 03:39:27;;;;;;;;;;;;;;;;;;5046314;28;4950;-60
2023/12/23 03:41:52;;;;;;;;;;;;;;;;;;5044051;28;5173;-59
2023/12/23 03:44:18;;;;;;;;;;;;;;;;;;5040850;28;4963;-59
2023/12/23 03:46:43;;;;;;;;;;;;;;;;;;5047269;28;5534;-59
2023/12/23 03:49:08;;;;;;;;;;;;;;;;;;5040306;28;3935;-59
2023/12/23 03:51:33;;;;;;;;;;;;;;;;;;5038589;28;4595;-59
2023/12/23 03:53:59;;;;;;;;;;;;;;;;;;5047742;28;5216;-59
2023/12/23 03:56:25;;;;;;;;;;;;;;;;;;5046070;28;4908;-59
2023/12/23 03:58:50;;;;;;;;;;;;;;;;;;5037937;28;5225;-59
2023/12/23 04:01:17;;;;;;;;;;;;;;;;;;5042432;28;3446;-59
2023/12/23 04:03:43;;;;;;;;;;;;;;;;;;5045923;28;5047;-58
2023/12/23 04:06:08;;;;;;;;;;;;;;;;;;5044340;28;5026;-58
2023/12/23 04:08:34;;;;;;;;;;;;;;;;;;5042694;28;4483;-58
2023/12/23 04:10:59;;;;;;;;;;;;;;;;;;5045010;28;4980;-59
2023/12/23 04:13:25;;;;;;;;;;;;;;;;;;5048669;28;5024;-61
2023/12/23 04:15:50;;;;;;;;;;;;;;;;;;5043743;28;3375;-60
2023/12/23 04:18:15;;;;;;;;;;;;;;;;;;5046343;28;5137;-60
2023/12/23 04:20:40;;;;;;;;;;;;;;;;;;5044430;28;5154;-60
2023/12/23 04:23:06;;;;;;;;;;;;;;;;;;5046633;28;5460;-62
2023/12/23 04:25:31;;;;;;;;;;;;;;;;;;5044142;28;5302;-61
2023/12/23 04:27:56;;;;;;;;;;;;;;;;;;5041753;28;3345;-61
2023/12/23 04:30:22;;;;;;;;;;;;;;;;;;5041926;28;4519;-59
2023/12/23 04:32:48;;;;;;;;;;;;;;;;;;5046216;28;4488;-59
2023/12/23 04:35:14;;;;;;;;;;;;;;;;;;5040005;28;5080;-58
2023/12/23 04:37:41;;;;;;;;;;;;;;;;;;5040710;28;4494;-59
2023/12/23 04:40:07;;;;;;;;;;;;;;;;;;5047513;28;1539;-60
2023/12/23 04:42:33;;;;;;;;;;;;;;;;;;5046108;28;5122;-60
2023/12/23 04:44:58;;;;;;;;;;;;;;;;;;5044289;28;4724;-59
2023/12/23 04:47:23;;;;;;;;;;;;;;;;;;5044130;28;5002;-59
2023/12/23 04:49:49;;;;;;;;;;;;;;;;;;5044452;28;5908;-60
2023/12/23 04:52:14;;;;;;;;;;;;;;;;;;5047752;28;2163;-60
2023/12/23 04:54:39;;;;;;;;;;;;;;;;;;5044990;28;4505;-60
2023/12/23 04:57:04;;;;;;;;;;;;;;;;;;5043332;28;4886;-60
2023/12/23 04:59:30;;;;;;;;;;;;;;;;;;5040683;28;5413;-59
2023/12/23 05:01:55;;;;;;;;;;;;;;;;;;5044609;28;4810;-60
2023/12/23 05:04:21;;;;;;;;;;;;;;;;;;5045568;28;3618;-60
2023/12/23 05:06:46;;;;;;;;;;;;;;;;;;5042195;28;5066;-59
2023/12/23 05:09:11;;;;;;;;;;;;;;;;;;5042758;28;5186;-60
2023/12/23 05:11:37;;;;;;;;;;;;;;;;;;5045655;28;4969;-61
2023/12/23 05:14:02;;;;;;;;;;;;;;;;;;5046177;28;5133;-60
2023/12/23 05:16:27;;;;;;;;;;;;;;;;;;5044675;28;5062;-61
2023/12/23 05:18:52;;;;;;;;;;;;;;;;;;5046238;28;3465;-60
2023/12/23 05:21:18;;;;;;;;;;;;;;;;;;5044520;28;5126;-60
2023/12/23 05:23:43;;;;;;;;;;;;;;;;;;5041176;28;5059;-59
2023/12/23 05:26:09;;;;;;;;;;;;;;;;;;5040675;28;5119;-59
2023/12/23 05:28:34;;;;;;;;;;;;;;;;;;5041184;28;5163;-59
2023/12/23 05:31:00;;;;;;;;;;;;;;;;;;5047590;28;1661;-60
2023/12/23 05:33:25;;;;;;;;;;;;;;;;;;5044117;28;5000;-61
2023/12/23 05:35:51;;;;;;;;;;;;;;;;;;5043897;28;5195;-60
2023/12/23 05:38:16;;;;;;;;;;;;;;;;;;5043146;28;5238;-60
2023/12/23 05:40:42;;;;;;;;;;;;;;;;;;5043197;28;5112;-61
2023/12/23 05:43:07;;;;;;;;;;;;;;;;;;5035229;28;3513;-60
2023/12/23 05:45:32;;;;;;;;;;;;;;;;;;5044324;28;4740;-59
2023/12/23 05:47:58;;;;;;;;;;;;;;;;;;5039601;28;5072;-60
2023/12/23 05:50:23;;;;;;;;;;;;;;;;;;5042023;28;4895;-59
2023/12/23 05:52:48;;;;;;;;;;;;;;;;;;5043817;28;5154;-59
2023/12/23 05:55:14;;;;;;;;;;;;;;;;;;5036558;28;3551;-59
2023/12/23 05:57:39;;;;;;;;;;;;;;;;;;5042904;28;5096;-60
2023/12/23 06:00:05;;;;;;;;;;;;;;;;;;5042202;28;5090;-61
2023/12/23 06:02:31;;;;;;;;;;;;;;;;;;5039438;28;4748;-60
2023/12/23 06:04:56;;;;;;;;;;;;;;;;;;5041410;28;5183;-60
2023/12/23 06:07:22;;;;;;;;;;;;;;;;;;5039388;28;3562;-59
2023/12/23 06:09:47;;;;;;;;;;;;;;;;;;5039707;28;4610;-60
2023/12/23 06:12:12;;;;;;;;;;;;;;;;;;5033035;28;4570;-60
2023/12/23 06:14:37;;;;;;;;;;;;;;;;;;5038397;28;5000;-59
2023/12/23 06:17:03;;;;;;;;;;;;;;;;;;5041223;28;4730;-59
2023/12/23 06:19:28;;;;;;;;;;;;;;;;;;5033717;28;5121;-61
2023/12/23 06:21:53;;;;;;;;;;;;;;;;;;5037022;28;3403;-60
2023/12/23 06:24:19;;;;;;;;;;;;;;;;;;5034369;28;5044;-59
2023/12/23 06:26:44;;;;;;;;;;;;;;;;;;5030026;28;5063;-60
2023/12/23 06:29:09;;;;;;;;;;;;;;;;;;5041295;28;4551;-59
2023/12/23 06:31:34;;;;;;;;;;;;;;;;;;5046507;28;4543;-60
2023/12/23 06:34:00;;;;;;;;;;;;;;;;;;5046275;28;5146;-60
2023/12/23 06:36:25;;;;;;;;;;;;;;;;;;5044350;28;4980;-59
2023/12/23 06:38:50;;;;;;;;;;;;;;;;;;5043383;28;5061;-60
2023/12/23 06:41:16;;;;;;;;;;;;;;;;;;5042912;28;5166;-60
2023/12/23 06:43:41;;;;;;;;;;;;;;;;;;5044507;28;5107;-60
2023/12/23 06:46:10;;;;;;;;;;;;;;;;;;5047442;28;3470;-62
2023/12/23 06:48:35;;;;;;;;;;;;;;;;;;5046274;28;5029;-60
2023/12/23 06:51:01;;;;;;;;;;;;;;;;;;5043137;28;4767;-60
2023/12/23 06:53:26;;;;;;;;;;;;;;;;;;5042415;28;5136;-60
2023/12/23 06:55:51;;;;;;;;;;;;;;;;;;5041235;28;5049;-60
2023/12/23 06:58:16;;;;;;;;;;;;;;;;;;5048673;28;3572;-60
2023/12/23 07:00:42;;;;;;;;;;;;;;;;;;5040310;28;4670;-62
2023/12/23 07:03:08;;;;;;;;;;;;;;;;;;5041679;28;4540;-60
2023/12/23 07:05:33;;;;;;;;;;;;;;;;;;5039708;28;4901;-60
2023/12/23 07:07:58;;;;;;;;;;;;;;;;;;5037495;28;5205;-62
2023/12/23 07:10:24;;;;;;;;;;;;;;;;;;5044382;28;5036;-60
2023/12/23 07:12:49;;;;;;;;;;;;;;;;;;5046173;28;3545;-60
2023/12/23 07:15:14;;;;;;;;;;;;;;;;;;5042598;28;4648;-60
2023/12/23 07:17:39;;;;;;;;;;;;;;;;;;5046064;28;5116;-59
2023/12/23 07:20:05;;;;;;;;;;;;;;;;;;5047900;28;4938;-61
2023/12/23 07:22:30;;;;;;;;;;;;;;;;;;5047052;28;5211;-61
2023/12/23 07:24:56;;;;;;;;;;;;;;;;;;5045678;28;3387;-59
2023/12/23 07:27:21;;;;;;;;;;;;;;;;;;5038399;28;4596;-59
2023/12/23 07:29:47;;;;;;;;;;;;;;;;;;5043643;28;5167;-61
2023/12/23 07:32:12;;;;;;;;;;;;;;;;;;5044512;28;5209;-60
2023/12/23 07:34:38;;;;;;;;;;;;;;;;;;5043172;28;5118;-60
2023/12/23 07:37:03;;;;;;;;;;;;;;;;;;5041510;28;3466;-60
2023/12/23 07:39:28;;;;;;;;;;;;;;;;;;5044672;28;4440;-60
2023/12/23 07:41:54;;;;;;;;;;;;;;;;;;5047547;28;5037;-60
2023/12/23 07:44:19;;;;;;;;;;;;;;;;;;5043546;28;5165;-61
2023/12/23 07:46:44;;;;;;;;;;;;;;;;;;5047270;28;5165;-60
2023/12/23 07:49:09;;;;;;;;;;;;;;;;;;5049569;28;1981;-59
2023/12/23 07:51:35;;;;;;;;;;;;;;;;;;5043496;28;4928;-59
2023/12/23 07:54:00;;;;;;;;;;;;;;;;;;5042954;28;4696;-59
2023/12/23 07:56:27;;;;;;;;;;;;;;;;;;5043797;28;5188;-60
2023/12/23 07:58:52;;;;;;;;;;;;;;;;;;5040804;28;5125;-61
2023/12/23 08:01:17;;;;;;;;;;;;;;;;;;5049322;28;1208;-60
2023/12/23 08:03:43;;;;;;;;;;;;;;;;;;5048706;28;4882;-61
2023/12/23 08:06:08;;;;;;;;;;;;;;;;;;5046545;28;6854;-60
2023/12/23 08:08:33;;;;;;;;;;;;;;;;;;5038807;28;5129;-60
2023/12/23 08:10:59;;;;;;;;;;;;;;;;;;5039274;28;5099;-61
2023/12/23 08:13:24;;;;;;;;;;;;;;;;;;5036701;28;5623;-61
2023/12/23 08:15:49;;;;;;;;;;;;;;;;;;5025679;28;3529;-61
2023/12/23 08:18:17;;;;;;;;;;;;;;;;;;5046315;28;4864;-60
2023/12/23 08:20:42;;;;;;;;;;;;;;;;;;5042950;28;6056;-61
2023/12/23 08:23:08;;;;;;;;;;;;;;;;;;5040248;28;5045;-60
2023/12/23 08:25:33;;;;;;;;;;;;;;;;;;5040118;28;4572;-61
2023/12/23 08:27:58;;;;;;;;;;;;;;;;;;5044818;28;1987;-59
2023/12/23 08:30:23;;;;;;;;;;;;;;;;;;5039583;28;4642;-60
2023/12/23 08:32:49;;;;;;;;;;;;;;;;;;5042266;28;5082;-60
2023/12/23 08:35:15;;;;;;;;;;;;;;;;;;5048618;28;5100;-61
2023/12/23 08:37:40;;;;;;;;;;;;;;;;;;5046940;28;5058;-60
2023/12/23 08:40:06;;;;;;;;;;;;;;;;;;5044888;28;3566;-59
2023/12/23 08:42:31;;;;;;;;;;;;;;;;;;5047404;28;4977;-61
2023/12/23 08:44:57;;;;;;;;;;;;;;;;;;5046042;28;4502;-62
2023/12/23 08:47:22;;;;;;;;;;;;;;;;;;5045771;28;5070;-60
2023/12/23 08:49:47;;;;;;;;;;;;;;;;;;5045709;28;5268;-59
2023/12/23 08:52:12;;;;;;;;;;;;;;;;;;5047367;28;1261;-58
2023/12/23 08:54:38;;;;;;;;;;;;;;;;;;5041828;28;4474;-60
2023/12/23 08:57:03;;;;;;;;;;;;;;;;;;5045707;28;4534;-59
2023/12/23 08:59:28;;;;;;;;;;;;;;;;;;5045540;28;5046;-61
2023/12/23 09:01:54;;;;;;;;;;;;;;;;;;5042783;28;4644;-62
2023/12/23 09:04:19;;;;;;;;;;;;;;;;;;5036446;28;3466;-59
2023/12/23 09:06:44;;;;;;;;;;;;;;;;;;5039369;28;4567;-61
2023/12/23 09:09:10;;;;;;;;;;;;;;;;;;5036932;28;5152;-67
2023/12/23 09:11:42;;;;;;;;;;;;;;;;;;5039391;28;5185;-64
2023/12/23 09:14:09;;;;;;;;;;;;;;;;;;5027173;28;5111;-65
2023/12/23 09:16:35;;;;;;;;;;;;;;;;;;5044971;28;5120;-64
2023/12/23 09:19:00;;;;;;;;;;;;;;;;;;5025893;28;3698;-61
2023/12/23 09:21:25;;;;;;;;;;;;;;;;;;5030916;28;5189;-62
2023/12/23 09:23:51;;;;;;;;;;;;;;;;;;5039659;28;4513;-63
2023/12/23 09:26:16;;;;;;;;;;;;;;;;;;5024001;28;5073;-63
2023/12/23 09:28:41;;;;;;;;;;;;;;;;;;5020296;28;5195;-62
2023/12/23 09:31:06;;;;;;;;;;;;;;;;;;5023234;28;3756;-63
2023/12/23 09:33:34;;;;;;;;;;;;;;;;;;5020913;28;5187;-63
2023/12/23 09:35:59;;;;;;;;;;;;;;;;;;5020377;28;5335;-62
2023/12/23 09:38:24;;;;;;;;;;;;;;;;;;5022014;28;5156;-63
2023/12/23 09:40:49;;;;;;;;;;;;;;;;;;5023191;28;5180;-63
2023/12/23 09:43:15;;;;;;;;;;;;;;;;;;5003870;28;3528;-63
2023/12/23 09:45:40;;;;;;;;;;;;;;;;;;5026052;28;5019;-62
2023/12/23 09:48:06;;;;;;;;;;;;;;;;;;5019676;28;5081;-62
2023/12/23 09:50:31;;;;;;;;;;;;;;;;;;5008025;28;4557;-63
2023/12/23 09:52:57;;;;;;;;;;;;;;;;;;5030520;28;4974;-63
2023/12/23 09:55:23;;;;;;;;;;;;;;;;;;5006635;28;3576;-62
2023/12/23 09:57:48;;;;;;;;;;;;;;;;;;5014367;28;5002;-62
2023/12/23 10:00:13;;;;;;;;;;;;;;;;;;5019386;28;5131;-65
2023/12/23 10:02:39;;;;;;;;;;;;;;;;;;5005432;28;5113;-64
2023/12/23 10:05:04;;;;;;;;;;;;;;;;;;5006659;28;5340;-68
2023/12/23 10:07:29;;;;;;;;;;;;;;;;;;5022268;28;5189;-65
2023/12/23 10:09:55;;;;;;;;;;;;;;;;;;5023754;28;1910;-69
2023/12/23 10:12:20;;;;;;;;;;;;;;;;;;5020604;28;4508;-73
2023/12/23 10:14:47;;;;;;;;;;;;;;;;;;5021300;28;5061;-68
2023/12/23 10:17:13;;;;;;;;;;;;;;;;;;5021934;28;5110;-68
2023/12/23 10:19:38;;;;;;;;;;;;;;;;;;5026188;28;5028;-69
2023/12/23 10:22:03;;;;;;;;;;;;;;;;;;5024789;28;3309;-69
2023/12/23 10:24:28;;;;;;;;;;;;;;;;;;5027874;28;4896;-63
2023/12/23 10:26:54;;;;;;;;;;;;;;;;;;5017066;28;5170;-61
2023/12/23 10:29:19;;;;;;;;;;;;;;;;;;5017802;28;5128;-72
2023/12/23 10:31:45;;;;;;;;;;;;;;;;;;5007613;28;5057;-71
2023/12/23 10:34:12;;;;;;;;;;;;;;;;;;5018785;28;3498;-72
2023/12/23 10:36:41;;;;;;;;;;;;;;;;;;5030377;28;5115;-75
2023/12/23 10:39:08;;;;;;;;;;;;;;;;;;5028386;28;5065;-78
2023/12/23 10:41:36;;;;;;;;;;;;;;;;;;5029089;28;5078;-73
2023/12/23 10:44:02;;;;;;;;;;;;;;;;;;5020315;28;4904;-71
2023/12/23 10:46:27;;;;;;;;;;;;;;;;;;5007559;28;4718;-67
2023/12/23 10:48:53;;;;;;;;;;;;;;;;;;5007978;28;3292;-74
2023/12/23 10:51:18;;;;;;;;;;;;;;;;;;5005222;28;4580;-73
2023/12/23 10:53:44;;;;;;;;;;;;;;;;;;4999179;28;4569;-72
2023/12/23 10:56:09;;;;;;;;;;;;;;;;;;5018995;28;4953;-69
2023/12/23 10:58:35;;;;;;;;;;;;;;;;;;5022440;28;5052;-64
2023/12/23 11:01:00;;;;;;;;;;;;;;;;;;5022627;28;4127;-72
2023/12/23 11:03:25;;;;;;;;;;;;;;;;;;5016008;28;5083;-71
2023/12/23 11:05:51;;;;;;;;;;;;;;;;;;5024782;28;5176;-71
2023/12/23 11:08:18;;;;;;;;;;;;;;;;;;5003519;28;5087;-67
2023/12/23 11:10:43;;;;;;;;;;;;;;;;;;5015583;28;4551;-73
2023/12/23 11:13:09;;;;;;;;;;;;;;;;;;5003196;28;3592;-74
2023/12/23 11:15:38;;;;;;;;;;;;;;;;;;5003464;28;4523;-73
2023/12/23 11:18:03;;;;;;;;;;;;;;;;;;5011673;28;5313;-72
2023/12/23 11:20:33;;;;;;;;;;;;;;;;;;4992696;28;4610;-74
2023/12/23 11:23:17;;;;;;;;;;;;;;;;;;5031169;28;4522;-75
2023/12/23 11:25:42;;;;;;;;;;;;;;;;;;5018270;28;5055;-64
2023/12/23 11:28:12;;;;;;;;;;;;;;;;;;5019266;28;3559;-62
2023/12/23 11:30:38;;;;;;;;;;;;;;;;;;5016591;28;4922;-64
2023/12/23 11:33:04;;;;;;;;;;;;;;;;;;5028035;28;4585;-61
2023/12/23 11:35:29;;;;;;;;;;;;;;;;;;5023866;28;5320;-60
2023/12/23 11:37:59;;;;;;;;;;;;;;;;;;5026710;28;4654;-60
2023/12/23 11:40:24;;;;;;;;;;;;;;;;;;5015582;28;4950;-62
2023/12/23 11:42:49;;;;;;;;;;;;;;;;;;5025427;28;3501;-61
2023/12/23 11:45:15;;;;;;;;;;;;;;;;;;5022889;28;4692;-61
2023/12/23 11:47:40;;;;;;;;;;;;;;;;;;5020743;28;4567;-63
2023/12/23 11:50:06;;;;;;;;;;;;;;;;;;5022657;28;5230;-64
2023/12/23 11:52:31;;;;;;;;;;;;;;;;;;5018569;28;4765;-63
2023/12/23 11:54:56;;;;;;;;;;;;;;;;;;5021037;28;3349;-64
2023/12/23 11:57:22;;;;;;;;;;;;;;;;;;5021160;28;5087;-63
2023/12/23 11:59:47;;;;;;;;;;;;;;;;;;5019428;28;5134;-65
2023/12/23 12:02:13;;;;;;;;;;;;;;;;;;5023514;28;5171;-63
2023/12/23 12:04:38;;;;;;;;;;;;;;;;;;4997329;28;5858;-64
2023/12/23 12:07:03;;;;;;;;;;;;;;;;;;5025190;28;1106;-62
2023/12/23 12:09:29;;;;;;;;;;;;;;;;;;5000954;28;4991;-63
2023/12/23 12:11:54;;;;;;;;;;;;;;;;;;5025097;28;5105;-63
2023/12/23 12:14:19;;;;;;;;;;;;;;;;;;5028664;28;4648;-62
2023/12/23 12:16:45;;;;;;;;;;;;;;;;;;5027176;28;5133;-63
2023/12/23 12:19:12;;;;;;;;;;;;;;;;;;5028675;28;1295;-64
2023/12/23 12:21:37;;;;;;;;;;;;;;;;;;5022910;28;4715;-63
2023/12/23 12:24:03;;;;;;;;;;;;;;;;;;5010360;28;5138;-63
2023/12/23 12:26:28;;;;;;;;;;;;;;;;;;5034944;28;4999;-62
2023/12/23 12:28:53;;;;;;;;;;;;;;;;;;5046408;28;5351;-63
2023/12/23 12:31:19;;;;;;;;;;;;;;;;;;5043714;28;2445;-63
2023/12/23 12:33:44;;;;;;;;;;;;;;;;;;5046382;28;5712;-63
2023/12/23 12:36:13;;;;;;;;;;;;;;;;;;5043058;28;4519;-63
2023/12/23 12:38:38;;;;;;;;;;;;;;;;;;5044846;28;5268;-63
2023/12/23 12:41:06;;;;;;;;;;;;;;;;;;5041426;28;5027;-62
2023/12/23 12:43:34;;;;;;;;;;;;;;;;;;5044445;28;5151;-62
2023/12/23 12:45:59;;;;;;;;;;;;;;;;;;5046596;28;3372;-64
2023/12/23 12:48:28;;;;;;;;;;;;;;;;;;5046305;28;4683;-63
2023/12/23 12:50:54;;;;;;;;;;;;;;;;;;5048751;28;4978;-64
2023/12/23 12:53:19;;;;;;;;;;;;;;;;;;5040301;28;5049;-64
2023/12/23 12:55:45;;;;;;;;;;;;;;;;;;5033992;28;5088;-63
2023/12/23 12:58:10;;;;;;;;;;;;;;;;;;5048046;28;1092;-63
2023/12/23 13:00:35;;;;;;;;;;;;;;;;;;5041373;28;4866;-63
2023/12/23 13:03:01;;;;;;;;;;;;;;;;;;5047867;28;5056;-63
2023/12/23 13:05:26;;;;;;;;;;;;;;;;;;5047053;28;5121;-64
2023/12/23 13:07:52;;;;;;;;;;;;;;;;;;5044678;28;5150;-62
2023/12/23 13:10:19;;;;;;;;;;;;;;;;;;5048242;28;1910;-62
2023/12/23 13:12:44;;;;;;;;;;;;;;;;;;5047073;28;5074;-63
2023/12/23 13:15:10;;;;;;;;;;;;;;;;;;5046051;28;4982;-63
2023/12/23 13:17:35;;;;;;;;;;;;;;;;;;5045305;28;5016;-62
2023/12/23 13:20:00;;;;;;;;;;;;;;;;;;5044596;28;4925;-65
2023/12/23 13:22:25;;;;;;;;;;;;;;;;;;5044641;28;5095;-63
2023/12/23 13:24:51;;;;;;;;;;;;;;;;;;5047748;28;1209;-63
2023/12/23 13:27:18;;;;;;;;;;;;;;;;;;5038580;28;5030;-62
2023/12/23 13:29:43;;;;;;;;;;;;;;;;;;5040012;28;5264;-64
2023/12/23 13:32:08;;;;;;;;;;;;;;;;;;5045625;28;4564;-62
2023/12/23 13:34:34;;;;;;;;;;;;;;;;;;5040564;28;5080;-65
2023/12/23 13:36:59;;;;;;;;;;;;;;;;;;5044118;28;3561;-63
2023/12/23 13:39:25;;;;;;;;;;;;;;;;;;5046025;28;4854;-63
2023/12/23 13:41:50;;;;;;;;;;;;;;;;;;5046817;28;5013;-62
2023/12/23 13:44:16;;;;;;;;;;;;;;;;;;5045483;28;5303;-63
2023/12/23 13:46:41;;;;;;;;;;;;;;;;;;5045334;28;5076;-63
2023/12/23 13:49:06;;;;;;;;;;;;;;;;;;5047731;28;1910;-64
2023/12/23 13:51:32;;;;;;;;;;;;;;;;;;5038137;28;4920;-63
2023/12/23 13:53:57;;;;;;;;;;;;;;;;;;5046712;28;5328;-63
2023/12/23 13:56:22;;;;;;;;;;;;;;;;;;5029395;28;5089;-63
2023/12/23 13:58:48;;;;;;;;;;;;;;;;;;5041236;28;4696;-63
2023/12/23 14:01:14;;;;;;;;;;;;;;;;;;5036381;28;3377;-64
2023/12/23 14:03:39;;;;;;;;;;;;;;;;;;5038416;28;4947;-63
2023/12/23 14:06:04;;;;;;;;;;;;;;;;;;5043807;28;5193;-63
2023/12/23 14:08:29;;;;;;;;;;;;;;;;;;5046437;28;5105;-63
2023/12/23 14:10:55;;;;;;;;;;;;;;;;;;5046178;28;5097;-63
2023/12/23 14:13:20;;;;;;;;;;;;;;;;;;5047569;28;1094;-62
2023/12/23 14:15:45;;;;;;;;;;;;;;;;;;5037572;28;4438;-64
2023/12/23 14:18:11;;;;;;;;;;;;;;;;;;5040559;28;4516;-61
2023/12/23 14:20:36;;;;;;;;;;;;;;;;;;5046258;28;6021;-63
2023/12/23 14:23:03;;;;;;;;;;;;;;;;;;5045971;28;5005;-63
2023/12/23 14:25:28;;;;;;;;;;;;;;;;;;5040436;28;5341;-62
2023/12/23 14:27:54;;;;;;;;;;;;;;;;;;5044678;28;1306;-63
2023/12/23 14:30:19;;;;;;;;;;;;;;;;;;5044019;28;4689;-63
2023/12/23 14:32:44;;;;;;;;;;;;;;;;;;5046047;28;4473;-66
2023/12/23 14:35:10;;;;;;;;;;;;;;;;;;5036457;28;5605;-64
2023/12/23 14:37:37;;;;;;;;;;;;;;;;;;5047196;28;5073;-64
2023/12/23 14:40:02;;;;;;;;;;;;;;;;;;5041424;28;1394;-63
2023/12/23 14:42:28;;;;;;;;;;;;;;;;;;5045852;28;4605;-63
2023/12/23 14:44:54;;;;;;;;;;;;;;;;;;5020016;28;5148;-63
2023/12/23 14:47:19;;;;;;;;;;;;;;;;;;5044484;28;5169;-64
2023/12/23 14:49:45;;;;;;;;;;;;;;;;;;5046904;28;5018;-62
2023/12/23 14:52:10;;;;;;;;;;;;;;;;;;5050648;28;1188;-63
2023/12/23 14:54:35;;;;;;;;;;;;;;;;;;5049990;28;5090;-64
2023/12/23 14:57:01;;;;;;;;;;;;;;;;;;5040997;28;4547;-63
2023/12/23 14:59:29;;;;;;;;;;;;;;;;;;5047171;28;5258;-64
2023/12/23 15:01:55;;;;;;;;;;;;;;;;;;5021123;28;5126;-63
2023/12/23 15:04:20;;;;;;;;;;;;;;;;;;5045287;28;3502;-62
2023/12/23 15:06:46;;;;;;;;;;;;;;;;;;5039951;28;5106;-62
2023/12/23 15:09:12;;;;;;;;;;;;;;;;;;5039996;28;4991;-63
2023/12/23 15:11:37;;;;;;;;;;;;;;;;;;5044709;28;5103;-65
2023/12/23 15:14:02;;;;;;;;;;;;;;;;;;5047711;28;5120;-63
2023/12/23 15:16:27;;;;;;;;;;;;;;;;;;5049383;28;5318;-63
2023/12/23 15:18:53;;;;;;;;;;;;;;;;;;5040586;28;3438;-63
2023/12/23 15:21:19;;;;;;;;;;;;;;;;;;5045693;28;5173;-62
2023/12/23 15:23:44;;;;;;;;;;;;;;;;;;5049402;28;4740;-65
2023/12/23 15:26:10;;;;;;;;;;;;;;;;;;5043007;28;5153;-62
2023/12/23 15:28:37;;;;;;;;;;;;;;;;;;5024513;28;4965;-62
2023/12/23 15:31:02;;;;;;;;;;;;;;;;;;5047439;28;3232;-63
2023/12/23 15:33:28;;;;;;;;;;;;;;;;;;5045739;28;4462;-64
2023/12/23 15:35:54;;;;;;;;;;;;;;;;;;5045931;28;5283;-64
2023/12/23 15:38:20;;;;;;;;;;;;;;;;;;5047994;28;4762;-63
2023/12/23 15:40:45;;;;;;;;;;;;;;;;;;5048852;28;4621;-64
2023/12/23 15:43:11;;;;;;;;;;;;;;;;;;5046285;28;4066;-62
2023/12/23 15:45:36;;;;;;;;;;;;;;;;;;5047659;28;5213;-62
2023/12/23 15:48:03;;;;;;;;;;;;;;;;;;5039492;28;4672;-63
2023/12/23 15:50:28;;;;;;;;;;;;;;;;;;5047388;28;4727;-63
2023/12/23 15:52:54;;;;;;;;;;;;;;;;;;5044456;28;5057;-63
2023/12/23 15:55:19;;;;;;;;;;;;;;;;;;5046166;28;3273;-62
2023/12/23 15:57:45;;;;;;;;;;;;;;;;;;5041573;28;5051;-62
2023/12/23 16:00:10;;;;;;;;;;;;;;;;;;5041518;28;5005;-63
2023/12/23 16:02:36;;;;;;;;;;;;;;;;;;5046598;28;4665;-63
2023/12/23 16:05:01;;;;;;;;;;;;;;;;;;5046201;28;4511;-63
2023/12/23 16:07:27;;;;;;;;;;;;;;;;;;5043029;28;5122;-62
2023/12/23 16:09:52;;;;;;;;;;;;;;;;;;5048807;28;1969;-62
2023/12/23 16:12:18;;;;;;;;;;;;;;;;;;5048663;28;4681;-62
2023/12/23 16:14:44;;;;;;;;;;;;;;;;;;5046912;28;4865;-64
2023/12/23 16:17:09;;;;;;;;;;;;;;;;;;5048174;28;5069;-63
2023/12/23 16:19:35;;;;;;;;;;;;;;;;;;5048495;28;5076;-62
2023/12/23 16:22:00;;;;;;;;;;;;;;;;;;5042920;28;1971;-63
2023/12/23 16:24:25;;;;;;;;;;;;;;;;;;5030026;28;4777;-64
2023/12/23 16:26:51;;;;;;;;;;;;;;;;;;5031056;28;5110;-62
2023/12/23 16:29:16;;;;;;;;;;;;;;;;;;5027214;28;5120;-63
2023/12/23 16:31:41;;;;;;;;;;;;;;;;;;5027575;28;5093;-63
2023/12/23 16:34:08;;;;;;;;;;;;;;;;;;5028145;28;5042;-63
2023/12/23 16:36:33;;;;;;;;;;;;;;;;;;5027770;28;4857;-62
2023/12/23 16:38:58;;;;;;;;;;;;;;;;;;5027825;28;4566;-63
2023/12/23 16:41:24;;;;;;;;;;;;;;;;;;5025644;28;5201;-62
2023/12/23 16:43:49;;;;;;;;;;;;;;;;;;5026822;28;5060;-63
2023/12/23 16:46:14;;;;;;;;;;;;;;;;;;5027181;28;3384;-63
2023/12/23 16:48:40;;;;;;;;;;;;;;;;;;5027254;28;5012;-63
2023/12/23 16:51:05;;;;;;;;;;;;;;;;;;5023322;28;4895;-64